Time;durP1;ratioP1;P1;durP2;ratioP2;P2;SDS_P1;SDS_P2;PMS_P1;PMS_P2;Temp;Humidity;BMP_temperature;BMP_pressure;BME280_temperature;BME280_humidity;BME280_pressure;Samples;Min_cycle;Max_cycle;Signal;HPM_P1;HPM_P2
2023/05/16 00:00:11;;;;;;;;;9.33;7.00;;;;;12.26;100.00;101345.94;4764782;29;47554;-83
2023/05/16 00:02:50;;;;;;;;;4.33;4.00;;;;;12.26;100.00;101335.28;4762212;29;45541;-84
2023/05/16 00:05:16;;;;;;;;;3.67;3.67;;;;;12.06;100.00;101340.25;4779403;29;45739;-83
2023/05/16 00:07:43;;;;;;;;;8.00;5.67;;;;;12.20;100.00;101345.00;4778825;29;45444;-83
2023/05/16 00:10:10;;;;;;;;;6.33;5.33;;;;;12.06;100.00;101340.25;4778163;29;47187;-83
2023/05/16 00:12:36;;;;;;;;;4.33;4.00;;;;;12.00;100.00;101346.41;4777796;29;45428;-83
2023/05/16 00:15:04;;;;;;;;;5.00;5.00;;;;;12.00;100.00;101349.97;4777212;29;45605;-83
2023/05/16 00:17:29;;;;;;;;;7.67;7.67;;;;;11.97;100.00;101341.00;4778740;29;45406;-83
2023/05/16 00:19:57;;;;;;;;;7.00;6.00;;;;;11.96;100.00;101353.44;4778107;29;45737;-83
2023/05/16 00:22:26;;;;;;;;;9.33;6.67;;;;;12.11;100.00;101347.47;4763624;29;45825;-83
2023/05/16 00:24:51;;;;;;;;;4.00;4.00;;;;;11.93;100.00;101339.16;4763635;29;45553;-83
2023/05/16 00:27:17;;;;;;;;;10.00;5.00;;;;;11.98;100.00;101346.38;4777638;29;45875;-83
2023/05/16 00:29:42;;;;;;;;;9.00;8.00;;;;;11.93;100.00;101341.81;4778124;29;46094;-83
2023/05/16 00:32:08;;;;;;;;;8.00;7.00;;;;;11.95;100.00;101348.09;4778408;29;45989;-83
2023/05/16 00:34:34;;;;;;;;;7.00;4.00;;;;;11.95;100.00;101348.09;4778041;29;45443;-83
2023/05/16 00:37:00;;;;;;;;;7.00;7.00;;;;;11.91;100.00;101351.56;4777234;29;45556;-83
2023/05/16 00:39:25;;;;;;;;;8.67;6.67;;;;;11.86;100.00;101342.56;4762441;29;47178;-83
2023/05/16 00:41:52;;;;;;;;;4.67;4.67;;;;;11.87;100.00;101334.56;4777602;29;45383;-83
2023/05/16 00:44:17;;;;;;;;;3.33;3.33;;;;;11.91;100.00;101346.22;4762368;29;45766;-83
2023/05/16 00:46:43;;;;;;;;;9.33;6.67;;;;;11.89;100.00;101353.31;4763738;29;45742;-84
2023/05/16 00:49:08;;;;;;;;;7.00;7.00;;;;;11.84;100.00;101342.53;4780011;29;45432;-83
2023/05/16 00:51:35;;;;;;;;;9.00;6.33;;;;;11.86;100.00;101348.78;4783115;29;45376;-83
2023/05/16 00:54:01;;;;;;;;;7.67;5.00;;;;;11.87;100.00;101349.69;4781632;29;45217;-84
2023/05/16 00:56:26;;;;;;;;;6.33;4.33;;;;;11.77;100.00;101348.59;4780359;29;45435;-83
2023/05/16 00:58:52;;;;;;;;;7.00;7.00;;;;;11.80;100.00;101338.00;4783241;29;45419;-84
2023/05/16 01:01:22;;;;;;;;;3.00;3.00;;;;;11.86;100.00;101342.56;4780278;29;45740;-84
2023/05/16 01:03:48;;;;;;;;;7.33;5.00;;;;;11.81;100.00;101343.38;4765103;29;45482;-84
2023/05/16 01:06:13;;;;;;;;;5.00;5.00;;;;;11.78;100.00;101345.09;4780776;29;45581;-83
2023/05/16 01:08:40;;;;;;;;;7.00;4.67;;;;;11.87;100.00;101352.34;4764226;29;47963;-84
2023/05/16 01:11:33;;;;;;;;;6.67;5.00;;;;;11.93;100.00;101352.50;4779857;29;45458;-83
2023/05/16 01:14:18;;;;;;;;;8.33;7.00;;;;;11.64;100.00;101347.47;4763961;29;45425;-84
2023/05/16 01:16:47;;;;;;;;;5.33;4.00;;;;;11.56;100.00;101351.75;4777710;29;45616;-84
2023/05/16 01:19:39;;;;;;;;;3.00;3.00;;;;;11.54;100.00;101350.84;4778327;29;46556;-84
2023/05/16 01:22:15;;;;;;;;;7.33;6.33;;;;;11.64;100.00;101347.47;4777106;29;45900;-83
2023/05/16 01:25:16;;;;;;;;;9.00;6.33;;;;;11.72;100.00;101345.84;4778499;29;45436;-83
2023/05/16 01:27:44;;;;;;;;;3.67;3.67;;;;;11.72;100.00;101355.63;4704546;30;45500;-84
2023/05/16 01:30:17;;;;;;;;;11.00;8.33;;;;;12.04;100.00;101348.25;4691443;30;47135;-84
2023/05/16 01:32:43;;;;;;;;;7.00;7.00;;;;;11.70;100.00;101347.59;4690218;30;45779;-84
2023/05/16 01:35:10;;;;;;;;;5.00;5.00;;;;;11.61;100.00;101352.72;4706351;30;45450;-83
2023/05/16 01:37:47;;;;;;;;;8.00;5.33;;;;;11.64;100.00;101363.47;4691732;30;45640;-84
2023/05/16 01:40:18;;;;;;;;;4.00;4.00;;;;;11.55;100.00;101363.28;4692312;30;48200;-84
2023/05/16 01:42:49;;;;;;;;;5.00;3.00;;;;;11.53;100.00;101365.00;4691646;30;45478;-84
2023/05/16 01:45:25;;;;;;;;;4.33;4.33;;;;;11.51;100.00;101365.00;4706724;30;45407;-83
2023/05/16 01:48:16;;;;;;;;;4.00;4.00;;;;;11.61;100.00;101363.38;4706845;30;45564;-83
2023/05/16 01:50:53;;;;;;;;;3.67;3.33;;;;;11.56;100.00;101354.44;4706709;30;45451;-83
2023/05/16 01:53:24;;;;;;;;;5.33;3.00;;;;;11.52;100.00;101363.22;4692995;30;45524;-84
2023/05/16 01:55:55;;;;;;;;;4.67;4.00;;;;;11.41;100.00;101361.25;4709123;30;45439;-84
2023/05/16 01:58:25;;;;;;;;;3.67;3.67;;;;;11.29;100.00;101361.00;4710146;29;45707;-84
2023/05/16 02:00:53;;;;;;;;;5.33;4.00;;;;;11.20;100.00;101355.47;4709344;30;45350;-84
2023/05/16 02:03:19;;;;;;;;;4.00;3.00;;;;;11.10;100.00;101372.09;4708505;29;45405;-83
2023/05/16 02:05:44;;;;;;;;;5.00;5.00;;;;;11.10;100.00;101358.78;4781788;29;45395;-83
2023/05/16 02:08:10;;;;;;;;;6.00;6.00;;;;;11.06;100.00;101372.91;4781016;29;45652;-83
2023/05/16 02:10:35;;;;;;;;;6.00;3.67;;;;;11.05;100.00;101371.09;4781708;29;46450;-84
2023/05/16 02:13:01;;;;;;;;;5.67;4.67;;;;;10.99;100.00;101364.78;4781083;29;45705;-83
2023/05/16 02:15:26;;;;;;;;;6.67;4.67;;;;;11.00;100.00;101363.91;4780534;29;46071;-84
2023/05/16 02:17:52;;;;;;;;;7.33;4.67;;;;;10.92;100.00;101359.28;4781012;29;45428;-84
2023/05/16 02:20:17;;;;;;;;;8.33;2.33;;;;;10.88;100.00;101370.72;4764838;29;46991;-84
2023/05/16 02:22:43;;;;;;;;;6.00;5.33;;;;;10.88;100.00;101370.72;4778885;29;45853;-84
2023/05/16 02:25:09;;;;;;;;;3.67;3.67;;;;;10.90;100.00;101382.28;4780058;29;45431;-84
2023/05/16 02:27:35;;;;;;;;;3.00;3.00;;;;;11.09;100.00;101367.63;4781219;29;45349;-84
2023/05/16 02:30:00;;;;;;;;;3.33;2.00;;;;;10.85;100.00;101368.00;4781743;29;47051;-84
2023/05/16 02:32:26;;;;;;;;;3.00;3.00;;;;;10.86;100.00;101386.63;4781938;29;45467;-84
2023/05/16 02:34:52;;;;;;;;;2.33;2.33;;;;;10.82;100.00;101380.34;4780266;29;45515;-84
2023/05/16 02:37:17;;;;;;;;;4.00;4.00;;;;;10.80;100.00;101373.19;4778325;29;45883;-83
2023/05/16 02:39:43;;;;;;;;;4.67;4.67;;;;;10.81;100.00;101381.22;4780643;29;48583;-83
2023/05/16 02:42:26;;;;;;;;;7.33;3.00;;;;;10.97;100.00;101376.25;4781952;29;45364;-83
2023/05/16 02:44:51;;;;;;;;;3.00;2.33;;;;;10.78;100.00;101383.78;4781420;29;45446;-83
2023/05/16 02:47:17;;;;;;;;;6.33;4.00;;;;;10.75;100.00;101375.75;4764534;29;45375;-83
2023/05/16 02:49:42;;;;;;;;;6.67;6.00;;;;;10.69;100.00;101377.38;4781354;29;48012;-84
2023/05/16 02:52:08;;;;;;;;;4.00;4.00;;;;;10.66;100.00;101382.63;4779040;29;45802;-83
2023/05/16 02:54:33;;;;;;;;;5.67;4.00;;;;;10.64;100.00;101389.66;4778274;29;45557;-83
2023/05/16 02:56:58;;;;;;;;;5.33;3.67;;;;;10.55;100.00;101383.25;4780520;29;45352;-83
2023/05/16 02:59:24;;;;;;;;;5.67;3.67;;;;;10.59;100.00;101387.78;4778991;29;47246;-82
2023/05/16 03:01:49;;;;;;;;;5.00;4.00;;;;;10.61;100.00;101387.84;4777356;29;45639;-84
2023/05/16 03:04:15;;;;;;;;;6.00;3.00;;;;;10.66;100.00;101379.97;4777259;29;45452;-83
2023/05/16 03:06:40;;;;;;;;;3.33;3.00;;;;;10.63;100.00;101385.22;4775690;29;45554;-84
2023/05/16 03:09:06;;;;;;;;;6.67;3.33;;;;;10.59;100.00;101386.91;4761940;29;47008;-83
2023/05/16 03:11:32;;;;;;;;;3.67;2.67;;;;;10.57;100.00;101391.28;4777285;29;45446;-83
2023/05/16 03:13:58;;;;;;;;;6.00;6.00;;;;;10.55;100.00;101391.25;4779098;29;45732;-84
2023/05/16 03:16:24;;;;;;;;;5.00;3.67;;;;;10.58;100.00;101406.38;4778686;29;44719;-84
2023/05/16 03:18:50;;;;;;;;;3.33;2.33;;;;;10.59;100.00;101401.09;4778452;29;45471;-84
2023/05/16 03:21:15;;;;;;;;;3.00;3.00;;;;;10.59;100.00;101408.19;4779734;29;45310;-84
2023/05/16 03:23:40;;;;;;;;;5.67;3.00;;;;;10.60;100.00;101399.31;4779807;29;45459;-84
2023/05/16 03:26:06;;;;;;;;;4.00;4.00;;;;;10.62;100.00;101397.59;4781403;29;45391;-83
2023/05/16 03:28:31;;;;;;;;;4.67;4.67;;;;;10.59;100.00;101408.19;4780797;29;45417;-84
2023/05/16 03:30:57;;;;;;;;;4.00;4.00;;;;;10.54;100.00;101400.09;4763964;29;45341;-82
2023/05/16 03:33:23;;;;;;;;;6.67;4.00;;;;;10.48;100.00;101402.56;4779295;29;45503;-83
2023/05/16 03:35:49;;;;;;;;;4.00;4.00;;;;;10.45;100.00;101394.53;4762660;29;45514;-82
2023/05/16 03:38:16;;;;;;;;;6.33;5.67;;;;;10.50;100.00;101419.50;4760848;29;47211;-83
2023/05/16 03:40:41;;;;;;;;;3.33;3.00;;;;;10.51;100.00;101417.72;4778416;29;45507;-83
2023/05/16 03:43:07;;;;;;;;;4.67;4.00;;;;;10.44;100.00;101413.09;4779249;29;45385;-83
2023/05/16 03:45:32;;;;;;;;;6.67;3.00;;;;;10.46;100.00;101428.22;4779227;29;45801;-84
2023/05/16 03:47:57;;;;;;;;;3.00;3.00;;;;;10.44;100.00;101426.41;4778877;29;45431;-83
2023/05/16 03:50:24;;;;;;;;;3.00;3.00;;;;;10.48;100.00;101430.94;4775525;29;45415;-83
2023/05/16 03:52:51;;;;;;;;;7.00;5.33;;;;;10.49;100.00;101430.97;4777173;29;45416;-83
2023/05/16 03:55:16;;;;;;;;;3.67;3.00;;;;;10.52;100.00;101438.13;4761554;29;45516;-84
2023/05/16 03:57:43;;;;;;;;;4.00;4.00;;;;;10.48;100.00;101430.94;4777385;29;46138;-84
2023/05/16 04:00:10;;;;;;;;;4.00;4.00;;;;;10.45;100.00;101431.75;4777621;29;45493;-84
2023/05/16 04:02:35;;;;;;;;;4.00;4.00;;;;;10.41;100.00;101436.09;4777684;29;45504;-84
2023/05/16 04:05:02;;;;;;;;;4.00;4.00;;;;;10.43;100.00;101430.81;4779660;29;45654;-84
2023/05/16 04:07:27;;;;;;;;;5.33;5.33;;;;;10.45;100.00;101437.06;4778059;29;45767;-84
2023/05/16 04:09:54;;;;;;;;;7.00;5.33;;;;;10.56;100.00;101443.59;4777445;29;46033;-85
2023/05/16 04:12:20;;;;;;;;;4.67;3.00;;;;;10.49;100.00;101438.97;4779682;29;45357;-84
2023/05/16 04:14:46;;;;;;;;;5.33;3.00;;;;;10.50;100.00;101439.84;4762177;29;45348;-84
2023/05/16 04:17:11;;;;;;;;;6.00;6.00;;;;;10.53;100.00;101443.50;4762421;29;48207;-84
2023/05/16 04:19:37;;;;;;;;;4.67;4.00;;;;;10.56;100.00;101445.31;4777548;29;45557;-84
2023/05/16 04:22:02;;;;;;;;;4.00;4.00;;;;;10.58;100.00;101454.25;4779258;29;45704;-84
2023/05/16 04:24:27;;;;;;;;;6.67;4.67;;;;;10.56;100.00;101459.53;4763229;29;45443;-84
2023/05/16 04:26:54;;;;;;;;;4.67;3.33;;;;;10.56;100.00;101448.91;4779020;29;45472;-84
2023/05/16 04:29:20;;;;;;;;;3.00;3.00;;;;;10.55;100.00;101455.06;4779178;29;45378;-84
2023/05/16 04:31:45;;;;;;;;;6.00;6.00;;;;;10.58;100.00;101465.81;4777674;29;45396;-84
2023/05/16 04:34:12;;;;;;;;;4.67;3.00;;;;;10.52;100.00;101443.44;4778030;29;45687;-84
2023/05/16 04:36:37;;;;;;;;;4.00;4.00;;;;;10.54;100.00;101453.28;4762125;29;47201;-84
2023/05/16 04:39:03;;;;;;;;;7.00;4.00;;;;;10.54;100.00;101461.28;4776619;29;45653;-84
2023/05/16 04:41:29;;;;;;;;;6.00;4.67;;;;;10.52;100.00;101457.66;4762772;29;45377;-84
2023/05/16 04:43:54;;;;;;;;;5.33;5.33;;;;;10.49;100.00;101460.22;4779190;29;45346;-84
2023/05/16 04:46:20;;;;;;;;;7.33;4.00;;;;;10.56;100.00;101459.53;4762859;29;47033;-84
2023/05/16 04:48:45;;;;;;;;;7.00;7.00;;;;;10.68;100.00;101450.06;4761870;29;45388;-84
2023/05/16 04:51:12;;;;;;;;;6.67;3.00;;;;;10.82;100.00;101459.28;4776795;29;45418;-85
2023/05/16 04:53:37;;;;;;;;;6.00;4.00;;;;;10.87;100.00;101462.06;4750945;29;45795;-84
2023/05/16 04:56:04;;;;;;;;;2.67;2.67;;;;;10.99;100.00;101465.91;4758449;29;45408;-85
2023/05/16 04:58:30;;;;;;;;;4.67;4.00;;;;;10.93;100.00;101467.53;4760427;29;45436;-85
2023/05/16 05:00:55;;;;;;;;;4.00;4.00;;;;;11.06;100.00;101482.94;4759495;29;45365;-84
2023/05/16 05:03:21;;;;;;;;;6.00;3.00;;;;;11.13;100.00;101475.97;4747497;29;45728;-84
2023/05/16 05:05:46;;;;;;;;;5.00;3.00;;;;;11.14;100.00;101478.69;4776039;29;48029;-84
2023/05/16 05:08:12;;;;;;;;;3.33;3.33;;;;;11.18;100.00;101464.56;4762475;29;45234;-84
2023/05/16 05:14:06;;;;;;;;;10.67;7.00;;;;;11.57;100.00;101476.09;4761950;29;45412;-85
2023/05/16 05:16:32;;;;;;;;;3.33;3.33;;;;;11.50;100.00;101466.19;4772401;29;48354;-84
2023/05/16 05:18:57;;;;;;;;;5.67;4.00;;;;;11.54;100.00;101463.59;4772946;29;45863;-84
2023/05/16 05:21:24;;;;;;;;;7.67;6.67;;;;;11.69;100.00;101473.69;4775046;29;45357;-84
2023/05/16 05:23:50;;;;;;;;;4.00;4.00;;;;;11.83;100.00;101471.31;4759978;29;45450;-84
2023/05/16 05:26:16;;;;;;;;;5.33;3.67;;;;;11.98;100.00;101462.78;4774389;29;47246;-84
2023/05/16 05:28:41;;;;;;;;;7.00;7.00;;;;;12.11;100.00;101475.47;4774060;29;45420;-84
2023/05/16 05:31:07;;;;;;;;;7.67;4.00;;;;;12.20;100.00;101481.00;4778469;29;45417;-86
2023/05/16 05:33:32;;;;;;;;;3.00;3.00;;;;;12.26;100.00;101476.63;4778014;29;45857;-84
2023/05/16 05:35:58;;;;;;;;;3.33;3.00;;;;;12.30;100.00;101490.06;4763392;29;45740;-85
2023/05/16 05:38:24;;;;;;;;;7.00;6.00;;;;;12.18;100.00;101487.19;4777333;29;45431;-84
2023/05/16 05:40:49;;;;;;;;;3.33;3.33;;;;;12.17;100.00;101482.69;4763268;29;45797;-85
2023/05/16 05:43:15;;;;;;;;;4.67;4.67;;;;;12.24;100.00;101484.63;4775998;29;45390;-84
2023/05/16 05:45:41;;;;;;;;;6.33;6.33;;;;;12.28;100.00;101481.16;4777038;29;48163;-84
2023/05/16 05:48:07;;;;;;;;;4.00;4.00;;;;;12.46;100.00;101479.66;4781399;29;45895;-84
2023/05/16 05:50:33;;;;;;;;;4.33;4.33;;;;;12.45;100.00;101472.56;4777557;29;45573;-83
2023/05/16 05:52:58;;;;;;;;;5.67;3.00;;;;;12.55;100.00;101482.50;4764726;29;45274;-83
2023/05/16 05:55:24;;;;;;;;;5.00;4.00;;;;;12.58;100.00;101486.13;4781917;29;46672;-85
2023/05/16 05:57:49;;;;;;;;;6.33;4.00;;;;;12.61;100.00;101486.19;4782489;29;45400;-85
2023/05/16 06:00:14;;;;;;;;;5.00;3.67;;;;;12.67;100.00;101480.06;4777272;29;45439;-85
2023/05/16 06:02:40;;;;;;;;;2.00;2.00;;;;;12.62;99.35;101484.41;4780568;29;45744;-85
2023/05/16 06:05:12;;;;;;;;;7.00;3.67;;;;;12.61;100.00;101488.84;4763482;29;47839;-84
2023/05/16 06:07:38;;;;;;;;;9.00;6.00;;;;;12.63;100.00;101486.22;4747560;29;45462;-84
2023/05/16 06:10:05;;;;;;;;;4.00;4.00;;;;;12.66;100.00;101482.69;4765321;29;45432;-85
2023/05/16 06:12:30;;;;;;;;;6.67;5.00;;;;;12.72;100.00;101498.81;4764426;29;45717;-85
2023/05/16 06:14:56;;;;;;;;;4.00;3.00;;;;;12.68;95.83;101496.97;4762857;29;48225;-84
2023/05/16 06:17:21;;;;;;;;;4.00;3.00;;;;;12.66;94.12;101493.38;4762112;29;45405;-84
2023/05/16 06:19:47;;;;;;;;;3.00;3.00;;;;;12.68;94.90;101504.97;4761923;29;45453;-85
2023/05/16 06:22:13;;;;;;;;;3.00;3.00;;;;;12.67;99.52;101490.72;4747427;29;45635;-84
2023/05/16 06:24:38;;;;;;;;;2.33;2.33;;;;;12.74;97.82;101489.94;4763291;29;47502;-84
2023/05/16 06:27:03;;;;;;;;;4.00;3.00;;;;;12.72;89.20;101502.38;4762957;29;45400;-84
2023/05/16 06:29:30;;;;;;;;;1.00;1.00;;;;;12.84;92.18;101509.69;4762042;29;45437;-85
2023/05/16 06:31:55;;;;;;;;;3.67;2.00;;;;;12.80;96.85;101507.84;4749326;29;45513;-84
2023/05/16 06:34:27;;;;;;;;;2.33;0.33;;;;;12.86;89.75;101507.06;4761987;29;47152;-84
2023/05/16 06:36:53;;;;;;;;;0.00;0.00;;;;;12.88;87.97;101508.88;4747818;29;45446;-84
2023/05/16 06:39:18;;;;;;;;;3.33;2.00;;;;;12.92;90.28;101507.16;4762257;29;45309;-84
2023/05/16 06:41:44;;;;;;;;;2.00;2.00;;;;;13.02;94.50;101511.78;4762707;29;45438;-84
2023/05/16 06:44:10;;;;;;;;;2.33;2.33;;;;;13.01;84.57;101513.56;4763060;29;47354;-85
2023/05/16 06:46:35;;;;;;;;;3.00;3.00;;;;;13.10;88.70;101515.47;4762457;29;45427;-84
2023/05/16 06:49:01;;;;;;;;;2.33;2.33;;;;;13.21;87.58;101513.00;4764273;29;45465;-85
2023/05/16 06:51:27;;;;;;;;;1.67;1.00;;;;;13.19;85.31;101512.06;4764242;29;45487;-84
2023/05/16 06:53:52;;;;;;;;;1.00;1.00;;;;;13.23;89.20;101519.25;4765406;29;47173;-83
2023/05/16 06:56:17;;;;;;;;;2.00;2.00;;;;;13.19;81.68;101522.75;4764307;29;45713;-84
2023/05/16 06:58:43;;;;;;;;;2.67;2.00;;;;;13.24;82.92;101520.16;4749732;29;46070;-84
2023/05/16 07:01:08;;;;;;;;;2.67;1.33;;;;;13.35;88.13;101519.47;4763721;29;45374;-84
2023/05/16 07:03:34;;;;;;;;;2.00;2.00;;;;;13.52;85.73;101516.16;4765843;29;46154;-84
2023/05/16 07:06:22;;;;;;;;;2.00;0.67;;;;;13.59;86.07;101515.34;4767524;29;45377;-85
2023/05/16 07:23:13;;;;;;;;;2.00;2.00;;;;;14.41;84.55;101533.31;4678006;30;45413;-85
2023/05/16 07:48:33;;;;;;;;;1.00;1.00;;;;;14.54;74.82;101505.81;4752005;29;45039;-85
2023/05/16 07:51:35;;;;;;;;;1.67;1.33;;;;;14.90;69.96;101549.00;4755375;29;46393;-84
2023/05/16 08:00:53;;;;;;;;;4.00;2.00;;;;;14.76;70.79;101543.53;4715576;30;46005;-85
2023/05/16 08:03:56;;;;;;;;;;;;;;;;;;;;;
2023/05/16 08:06:47;;;;;;;;;2.33;2.33;;;;;14.66;70.20;101549.66;4692168;30;72905;-86
2023/05/16 08:38:28;;;;;;;;;2.67;1.33;;;;;15.38;68.02;101555.66;4798455;29;45469;-85
2023/05/16 08:40:57;;;;;;;;;0.33;0.00;;;;;14.89;63.85;101518.66;4774147;29;45510;-83
2023/05/16 08:44:19;;;;;;;;;;;;;;;;;;;;;
2023/05/16 08:47:36;;;;;;;;;2.00;1.00;;;;;15.16;65.47;101546.56;4748821;29;65406;-85
2023/05/16 08:53:24;;;;;;;;;0.67;0.67;;;;;15.14;61.01;101548.31;4744135;29;45496;-83
2023/05/16 11:18:07;;;;;;;;;1.00;1.00;;;;;16.93;53.49;101529.50;3111255;27;45860;-85
2023/05/16 11:44:42;;;;;;;;;1.00;1.00;;;;;17.92;53.25;101511.44;5533744;22;15526852;-85
2023/05/16 11:47:08;;;;;;;;;1.00;1.00;;;;;17.84;54.80;101502.50;6180444;23;45238;-85
2023/05/16 11:50:12;;;;;;;;;1.00;1.00;;;;;17.88;52.05;101514.16;6200106;23;44804;-85
2023/05/16 11:52:46;;;;;;;;;2.00;2.00;;;;;17.66;50.53;101500.72;6181047;23;45358;-86
2023/05/16 16:02:31;;;;;;;;;1.00;1.00;;;;;21.05;41.43;101463.19;6165599;22;45401;-86
2023/05/16 16:08:32;;;;;;;;;1.67;1.00;;;;;25.15;33.45;101469.72;6164672;23;45272;-85
2023/05/16 16:14:26;;;;;;;;;2.00;2.00;;;;;25.20;35.48;101470.41;6168141;23;45390;-86
2023/05/16 16:16:54;;;;;;;;;1.00;1.00;;;;;23.91;36.39;101463.72;6166150;23;47163;-85
2023/05/16 16:19:34;;;;;;;;;1.33;1.33;;;;;24.91;36.51;101491.38;6166191;23;44710;-85
2023/05/16 16:22:26;;;;;;;;;1.67;1.67;;;;;25.12;38.54;101500.63;6167357;23;45304;-85
2023/05/16 16:24:56;;;;;;;;;1.25;1.25;;;;;24.06;35.23;101512.19;6169931;23;45402;-86
2023/05/16 16:27:24;;;;;;;;;3.33;0.67;;;;;23.17;36.55;101509.22;6166833;23;46051;-86
2023/05/16 16:29:49;;;;;;;;;2.67;2.67;;;;;22.30;37.09;101475.13;6134494;23;45406;-86
2023/05/16 16:32:18;;;;;;;;;2.00;2.00;;;;;22.13;38.08;101507.97;6138041;23;45303;-86
2023/05/16 16:34:44;;;;;;;;;1.00;1.00;;;;;21.70;38.13;101481.81;6136482;23;45353;-86
2023/05/16 16:37:10;;;;;;;;;2.00;2.00;;;;;21.56;39.77;101502.84;6111335;23;45423;-86
2023/05/16 16:39:46;;;;;;;;;1.00;1.00;;;;;21.17;39.80;101475.59;6113586;23;45291;-85
2023/05/16 16:42:27;;;;;;;;;2.00;2.00;;;;;20.78;37.21;101476.25;6133857;23;45543;-85
2023/05/16 16:44:53;;;;;;;;;1.00;1.00;;;;;20.72;39.00;101505.19;6113491;23;45822;-85
2023/05/16 16:47:20;;;;;;;;;1.00;1.00;;;;;20.52;40.85;101495.56;6114071;23;46886;-85
2023/05/16 16:49:45;;;;;;;;;1.00;1.00;;;;;20.38;38.64;101484.06;6136254;23;45197;-86
2023/05/16 16:52:11;;;;;;;;;1.67;1.00;;;;;20.10;38.56;101514.16;6110958;23;45339;-86
2023/05/16 16:54:49;;;;;;;;;2.00;2.00;;;;;20.06;40.85;101480.00;6111944;23;45408;-87
2023/05/16 16:57:23;;;;;;;;;1.00;1.00;;;;;20.00;40.54;101477.38;6109183;23;47039;-86
2023/05/16 17:00:31;;;;;;;;;1.00;1.00;;;;;20.34;41.24;101514.72;6111418;23;45383;-85
2023/05/16 17:02:59;;;;;;;;;1.33;1.33;;;;;20.02;39.46;101515.13;5966365;23;45414;-85
2023/05/16 17:05:28;;;;;;;;;1.33;1.00;;;;;20.04;40.48;101519.63;5967995;23;45449;-85
2023/05/16 17:07:53;;;;;;;;;1.67;1.67;;;;;19.80;41.55;101474.03;5990794;23;46696;-86
2023/05/16 17:10:21;;;;;;;;;2.33;2.33;;;;;19.84;40.91;101513.59;5994907;23;45390;-86
2023/05/16 17:12:48;;;;;;;;;2.00;2.00;;;;;19.72;40.83;101504.72;6018912;23;45403;-85
2023/05/16 17:15:17;;;;;;;;;1.67;1.67;;;;;19.64;41.76;101478.69;5995788;23;45304;-86
2023/05/16 17:17:47;;;;;;;;;2.00;2.00;;;;;19.56;41.00;101486.88;6018473;23;45516;-86
2023/05/16 17:20:15;;;;;;;;;1.00;1.00;;;;;19.55;41.50;101486.00;5995363;23;45641;-86
2023/05/16 17:22:47;;;;;;;;;1.00;1.00;;;;;19.80;41.86;101528.03;6018145;23;45350;-86
2023/05/16 17:25:18;;;;;;;;;1.33;1.33;;;;;19.72;40.68;101529.00;5970518;23;45786;-86
2023/05/16 17:27:47;;;;;;;;;2.00;2.00;;;;;19.51;40.61;101519.31;6017482;23;45401;-86
2023/05/16 17:30:25;;;;;;;;;1.33;1.33;;;;;19.44;41.63;101498.69;5994983;23;45259;-87
2023/05/16 17:32:50;;;;;;;;;3.00;3.00;;;;;19.48;42.25;101522.03;5993691;23;45482;-86
2023/05/16 17:35:17;;;;;;;;;3.00;1.00;;;;;19.45;42.07;101510.38;5971074;23;45323;-86
2023/05/16 17:37:46;;;;;;;;;2.00;2.00;;;;;19.42;42.22;101508.59;6008553;23;47051;-86
2023/05/16 17:40:30;;;;;;;;;3.00;3.00;;;;;19.39;42.22;101522.13;6079271;23;45709;-86
2023/05/16 17:42:56;;;;;;;;;1.00;1.00;;;;;19.10;41.91;101515.19;6081104;23;45313;-85
2023/05/16 17:45:22;;;;;;;;;2.00;2.00;;;;;18.98;43.07;101507.22;6080408;23;45293;-87
2023/05/16 17:47:49;;;;;;;;;2.00;2.00;;;;;19.10;42.57;101547.53;6081635;23;46782;-86
2023/05/16 17:50:15;;;;;;;;;0.00;0.00;;;;;18.82;42.96;101501.03;6108465;23;45358;-85
2023/05/16 17:52:41;;;;;;;;;3.00;3.00;;;;;18.86;41.52;101532.47;6108527;23;45334;-86
2023/05/16 17:55:13;;;;;;;;;2.00;2.00;;;;;18.73;42.32;101503.78;6082532;23;45342;-86
2023/05/16 17:57:39;;;;;;;;;2.33;2.33;;;;;18.62;43.55;101516.44;6108420;23;45715;-86
2023/05/16 18:00:54;;;;;;;;;2.00;2.00;;;;;18.83;41.65;101540.59;6106730;23;44726;-86
2023/05/16 18:03:36;;;;;;;;;3.33;2.00;;;;;18.71;42.97;101537.94;6086088;23;45378;-85
2023/05/16 18:06:01;;;;;;;;;2.00;2.00;;;;;18.54;44.25;101541.66;6081228;23;45551;-87
2023/05/16 18:08:27;;;;;;;;;2.67;2.67;;;;;18.56;43.99;101549.69;6107153;23;46422;-86
2023/05/16 18:10:52;;;;;;;;;2.67;2.67;;;;;18.49;43.65;101561.44;6079559;23;45306;-86
2023/05/16 18:13:20;;;;;;;;;2.33;2.33;;;;;18.34;43.61;101540.84;6081845;23;44760;-86
2023/05/16 18:17:02;;;;;;;;;3.67;3.67;;;;;18.45;44.37;101559.66;6057889;23;45286;-86
2023/05/16 18:19:29;;;;;;;;;3.33;3.33;;;;;18.10;45.15;101518.53;6070536;23;45373;-86
2023/05/16 18:21:55;;;;;;;;;3.33;3.00;;;;;18.06;44.70;101516.75;6081734;23;45571;-86
2023/05/16 18:24:22;;;;;;;;;5.00;5.00;;;;;18.27;44.50;101575.00;6082343;23;45206;-86
2023/05/16 18:26:48;;;;;;;;;5.00;4.00;;;;;18.21;44.72;101572.31;6081857;23;45700;-86
2023/05/16 18:29:29;;;;;;;;;3.00;3.00;;;;;18.17;45.44;101560.66;6107766;23;45446;-86
2023/05/16 18:31:58;;;;;;;;;3.00;3.00;;;;;17.94;45.75;101555.38;6081221;23;45350;-85
2023/05/16 18:34:24;;;;;;;;;2.00;2.00;;;;;17.88;45.62;101543.75;6082495;23;45265;-85
2023/05/16 18:36:51;;;;;;;;;3.00;3.00;;;;;18.12;46.14;101559.81;6107897;23;45331;-87
2023/05/16 18:39:17;;;;;;;;;2.00;2.00;;;;;18.05;46.52;101573.28;6082296;23;48340;-86
2023/05/16 18:41:47;;;;;;;;;2.33;2.33;;;;;18.13;46.59;101572.34;6082510;23;45782;-85
2023/05/16 18:44:15;;;;;;;;;3.00;3.00;;;;;18.02;47.68;101590.34;6081452;23;45552;-86
2023/05/16 18:46:43;;;;;;;;;3.33;3.33;;;;;17.99;48.68;101585.84;6081079;23;45461;-86
2023/05/16 18:49:08;;;;;;;;;2.00;2.00;;;;;17.83;49.22;101588.56;6081507;23;47272;-86
2023/05/16 18:51:34;;;;;;;;;2.67;2.67;;;;;17.73;49.25;101579.63;6081746;23;45257;-86
2023/05/16 18:54:00;;;;;;;;;2.67;2.67;;;;;17.65;49.72;101574.25;6081119;23;45377;-85
2023/05/16 18:56:25;;;;;;;;;1.00;1.00;;;;;17.58;50.16;101585.94;6107664;23;45325;-86
2023/05/16 18:58:51;;;;;;;;;2.00;2.00;;;;;17.53;49.89;101595.78;6080356;23;46897;-86
2023/05/16 19:01:20;;;;;;;;;4.67;3.00;;;;;17.48;50.36;101597.59;6106865;23;45355;-86
2023/05/16 19:03:53;;;;;;;;;4.33;2.00;;;;;17.41;50.18;101596.72;6110134;23;45452;-86
2023/05/16 19:06:19;;;;;;;;;2.00;2.00;;;;;17.40;50.32;101601.16;6078268;23;45475;-86
2023/05/16 19:08:44;;;;;;;;;4.67;3.33;;;;;17.31;50.72;101594.88;6078934;23;46821;-86
2023/05/16 19:11:09;;;;;;;;;4.50;4.00;;;;;17.29;50.32;101584.16;6105037;23;45338;-87
2023/05/16 19:13:35;;;;;;;;;2.67;2.67;;;;;17.29;50.15;101600.28;6078885;23;45687;-86
2023/05/16 19:16:00;;;;;;;;;2.00;2.00;;;;;17.25;50.53;101600.28;6103544;23;45628;-86
2023/05/16 19:18:27;;;;;;;;;4.00;4.00;;;;;17.22;51.11;101595.78;6105059;23;46492;-87
2023/05/16 19:20:54;;;;;;;;;3.00;3.00;;;;;17.24;51.06;101603.88;6079602;23;44732;-87
2023/05/16 19:23:20;;;;;;;;;4.67;3.00;;;;;17.22;51.01;101609.25;6104404;23;45460;-86
2023/05/16 19:25:47;;;;;;;;;3.00;3.00;;;;;17.18;50.67;101615.50;6104989;23;45366;-87
2023/05/16 19:28:13;;;;;;;;;5.33;4.00;;;;;17.16;51.24;101617.31;6104020;23;45223;-87
2023/05/16 19:30:39;;;;;;;;;4.00;4.00;;;;;17.12;51.43;101618.19;6101284;23;45485;-86
2023/05/16 19:33:05;;;;;;;;;2.67;2.67;;;;;17.09;51.48;101631.66;6104628;23;45364;-86
2023/05/16 19:35:31;;;;;;;;;4.00;4.00;;;;;17.14;51.59;101625.34;6078954;23;45430;-87
2023/05/16 19:37:57;;;;;;;;;2.00;2.00;;;;;16.99;51.64;101594.00;6106272;23;46246;-86
2023/05/16 19:40:23;;;;;;;;;2.00;2.00;;;;;17.02;52.23;101616.38;6103457;23;45345;-86
2023/05/16 19:42:48;;;;;;;;;4.00;4.00;;;;;17.06;52.21;101642.38;6106625;23;45287;-86
2023/05/16 19:45:14;;;;;;;;;2.33;2.33;;;;;16.92;52.83;101613.69;6082172;23;45480;-85
2023/05/16 19:47:39;;;;;;;;;3.00;2.00;;;;;16.91;53.24;101617.28;6106080;23;45892;-85
2023/05/16 19:50:05;;;;;;;;;1.33;1.00;;;;;16.99;52.87;101642.38;6106156;23;45335;-85
2023/05/16 19:52:31;;;;;;;;;3.00;2.00;;;;;17.00;52.98;101638.75;6108264;23;45351;-85